Time;durP1;ratioP1;P1;durP2;ratioP2;P2;SDS_P1;SDS_P2;PMS_P1;PMS_P2;Temp;Humidity;BMP_temperature;BMP_pressure;BME280_temperature;BME280_humidity;BME280_pressure;Samples;Min_cycle;Max_cycle;Signal;HPM_P1;HPM_P2
2021/06/16 00:02:16;;;;;;;8.50;7.13;;;;;;;19.51;72.65;100436.63;5045857;27;102682;-83
2021/06/16 00:04:42;;;;;;;7.65;7.05;;;;;;;19.51;72.69;100442.16;5044050;27;103889;-86
2021/06/16 00:07:09;;;;;;;7.50;6.90;;;;;;;19.50;72.96;100441.34;5047617;27;103041;-85
2021/06/16 00:09:35;;;;;;;7.78;7.07;;;;;;;19.50;72.72;100435.03;5039202;27;102087;-85
2021/06/16 00:12:02;;;;;;;7.60;7.00;;;;;;;19.50;73.09;100435.81;5039834;27;102525;-86
2021/06/16 00:14:38;;;;;;;7.47;6.88;;;;;;;19.51;72.90;100437.47;5046723;27;103895;-86
2021/06/16 00:17:05;;;;;;;7.60;7.00;;;;;;;19.50;72.84;100446.06;5067624;27;102208;-86
2021/06/16 00:19:32;;;;;;;8.20;7.60;;;;;;;19.49;72.90;100433.41;5044258;27;102194;-86
2021/06/16 00:21:59;;;;;;;7.55;6.95;;;;;;;19.50;72.98;100435.03;5042878;27;102228;-86
2021/06/16 00:24:25;;;;;;;7.47;6.90;;;;;;;19.49;72.92;100444.47;5043606;27;103952;-85
2021/06/16 00:26:52;;;;;;;7.18;6.57;;;;;;;19.49;72.58;100439.75;5044232;27;102276;-86
2021/06/16 00:29:19;;;;;;;7.60;6.97;;;;;;;19.49;72.82;100438.94;5040650;27;102550;-85
2021/06/16 00:31:47;;;;;;;7.47;6.88;;;;;;;19.48;72.63;100437.34;5051581;27;102657;-85
2021/06/16 00:34:14;;;;;;;7.77;7.07;;;;;;;19.48;72.63;100440.09;5056732;27;104030;-85
2021/06/16 00:36:42;;;;;;;14.70;7.70;;;;;;;19.48;72.74;100431.81;5033967;27;102462;-85
2021/06/16 00:39:10;;;;;;;8.43;7.72;;;;;;;19.48;73.02;100431.81;5028164;27;102174;-84
2021/06/16 00:41:37;;;;;;;7.88;7.20;;;;;;;19.49;72.76;100427.91;5031216;28;102275;-83
2021/06/16 00:44:04;;;;;;;8.43;7.72;;;;;;;19.48;72.93;100427.09;5027557;28;103909;-82
2021/06/16 00:46:31;;;;;;;8.32;7.63;;;;;;;19.49;72.76;100425.13;5029265;28;102262;-83
2021/06/16 00:49:00;;;;;;;7.68;6.97;;;;;;;19.49;72.63;100434.22;5020473;28;102261;-82
2021/06/16 00:51:27;;;;;;;7.68;7.07;;;;;;;19.48;72.88;100429.84;5027885;28;102496;-82
2021/06/16 00:53:53;;;;;;;8.25;7.65;;;;;;;19.48;72.82;100437.34;5027144;27;103670;-83
2021/06/16 00:56:20;;;;;;;8.00;7.40;;;;;;;19.48;72.69;100442.84;5030051;27;102668;-83
2021/06/16 00:58:47;;;;;;;7.25;6.75;;;;;;;19.48;73.02;100440.09;5030297;28;102392;-83
2021/06/16 01:01:18;;;;;;;8.13;7.43;;;;;;;19.48;72.49;100437.34;5025791;27;102717;-83
2021/06/16 01:03:57;;;;;;;8.27;7.60;;;;;;;19.48;72.69;100446.41;5027982;28;103773;-83
2021/06/16 01:06:28;;;;;;;8.20;7.57;;;;;;;19.47;72.66;100442.03;5032623;28;102469;-83
2021/06/16 01:09:04;;;;;;;7.35;6.75;;;;;;;19.48;72.59;100442.84;5029597;28;103625;-83
2021/06/16 01:11:34;;;;;;;8.10;7.40;;;;;;;19.47;72.96;100446.72;5030584;27;102302;-83
2021/06/16 01:14:09;;;;;;;7.53;7.03;;;;;;;19.47;72.69;100432.94;5023323;28;104190;-83
2021/06/16 01:16:40;;;;;;;7.75;7.07;;;;;;;19.47;72.64;100433.75;5027732;28;101998;-83
2021/06/16 01:19:31;;;;;;;8.43;7.78;;;;;;;19.47;72.92;100425.47;5029992;27;102382;-82
2021/06/16 01:22:03;;;;;;;8.27;7.57;;;;;;;19.47;73.03;100430.19;5028732;27;102086;-82
2021/06/16 01:24:30;;;;;;;8.00;7.40;;;;;;;19.47;72.95;100436.50;5026982;28;104085;-82
2021/06/16 01:26:59;;;;;;;7.43;6.90;;;;;;;19.48;72.80;100437.34;5026426;28;102470;-81
2021/06/16 01:29:28;;;;;;;;;;;;;;;19.47;72.55;100442.03;5031438;28;102613;-82
2021/06/16 01:31:55;;;;;;;;;;;;;;;19.47;72.98;100446.72;5030921;28;103439;-82
2021/06/16 01:34:22;;;;;;;;;;;;;;;19.46;72.77;100451.44;5034573;27;103882;-83
2021/06/16 01:36:50;;;;;;;;;;;;;;;19.46;72.98;100445.94;5050048;27;102420;-83
2021/06/16 01:39:18;;;;;;;;;;;;;;;19.45;72.86;100447.88;5047327;27;102156;-86
2021/06/16 01:41:45;;;;;;;;;;;;;;;19.45;72.88;100447.88;5052675;27;102249;-86
2021/06/16 01:44:13;;;;;;;;;;;;;;;19.44;73.04;100446.28;5051900;27;104029;-86
2021/06/16 01:46:42;;;;;;;;;;;;;;;19.45;73.15;100444.31;5043098;27;102573;-86
2021/06/16 01:49:09;;;;;;;;;;;;;;;19.44;72.59;100442.72;5051629;27;102481;-86
2021/06/16 01:51:35;;;;;;;;;;;;;;;19.45;72.76;100439.63;5065843;27;102585;-86
2021/06/16 01:54:02;;;;;;;;;;;;;;;19.45;72.98;100436.84;5051480;27;103890;-86
2021/06/16 01:56:30;;;;;;;;;;;;;;;19.43;72.84;100439.13;5047053;27;102196;-85
2021/06/16 01:58:57;;;;;;;;;;;;;;;19.43;72.82;100447.41;5050798;27;102172;-82
2021/06/16 02:01:25;;;;;;;;;;;;;;;19.42;72.81;100445.81;5055275;27;102451;-82
2021/06/16 02:03:53;;;;;;;;;;;;;;;19.43;73.41;100441.09;5054786;27;104064;-81
2021/06/16 02:06:22;;;;;;;;;;;;;;;19.43;73.11;100439.13;5055401;27;102608;-83
2021/06/16 02:08:49;;;;;;;;;;;;;;;19.43;72.73;100447.41;5043737;27;102385;-84
2021/06/16 02:11:17;;;;;;;;;;;;;;;19.42;72.92;100448.56;5051581;27;102520;-84
2021/06/16 02:13:45;;;;;;;;;;;;;;;19.41;72.91;100444.19;5041058;27;103843;-83
2021/06/16 02:16:12;;;;;;;;;;;;;;;19.41;72.64;100441.44;5046346;27;102273;-87
2021/06/16 02:18:44;;;;;;;;;;;;;;;19.42;73.12;100440.28;5044550;27;102359;-86
2021/06/16 02:21:10;;;;;;;;;;;;;;;19.42;72.92;100448.56;5052705;27;102485;-86
2021/06/16 02:23:36;;;;;;;;;;;;;;;19.42;73.01;100445.00;5050790;27;104311;-85
2021/06/16 02:26:03;;;;;;;;;;;;;;;19.42;73.03;100456.03;5064326;27;102095;-85
2021/06/16 02:28:29;;;;;;;;;;;;;;;19.41;73.08;100458.00;5055442;27;102361;-85
2021/06/16 02:30:55;;;;;;;;;;;;;;;19.41;72.76;100457.19;5051205;27;102391;-84
2021/06/16 02:33:21;;;;;;;;;;;;;;;19.42;73.16;100458.78;5047756;27;103013;-84
2021/06/16 02:35:49;;;;;;;;;;;;;;;19.41;73.06;100460.75;5052739;27;102738;-82
2021/06/16 02:38:18;;;;;;;;;;;;;;;19.43;72.91;100469.47;5050340;27;102501;-82
2021/06/16 02:40:44;;;;;;;;;;;;;;;19.42;72.92;100467.88;5054151;27;102599;-82
2021/06/16 02:43:11;;;;;;;;;;;;;;;19.43;72.76;100469.47;5053134;27;105034;-83
2021/06/16 02:45:38;;;;;;;;;;;;;;;19.43;73.12;100469.47;5048498;27;102409;-83
2021/06/16 02:48:05;;;;;;;;;;;;;;;19.42;72.79;100473.41;5055012;27;102729;-83
2021/06/16 02:50:32;;;;;;;;;;;;;;;19.41;72.91;100471.78;5052367;27;102771;-83
2021/06/16 02:53:02;;;;;;;;;;;;;;;19.41;72.81;100474.53;5045953;27;103638;-83
2021/06/16 02:55:31;;;;;;;;;;;;;;;19.42;73.02;100473.41;5045364;27;102500;-83
2021/06/16 02:57:58;;;;;;;;;;;;;;;19.41;72.75;100471.78;5044496;27;102039;-83
2021/06/16 03:00:25;;;;;;;;;;;;;;;19.42;73.06;100475.34;5057800;27;102220;-83
2021/06/16 03:02:52;;;;;;;;;;;;;;;19.42;72.99;100470.63;5053058;27;104102;-83
2021/06/16 03:05:21;;;;;;;;;;;;;;;19.41;73.05;100460.75;5043227;27;102100;-83
2021/06/16 03:07:48;;;;;;;;;;;;;;;19.42;72.76;100472.59;5050040;27;102685;-82
2021/06/16 03:10:16;;;;;;;;;;;;;;;19.41;72.87;100469.03;5053083;27;102197;-82
2021/06/16 03:12:43;;;;;;;;;;;;;;;19.42;72.94;100465.13;5053592;27;104134;-82
2021/06/16 03:15:10;;;;;;;;;;;;;;;19.41;72.60;100471.78;5051720;27;102616;-85
2021/06/16 03:17:37;;;;;;;;;;;;;;;19.42;72.66;100464.31;5052581;27;102232;-86
2021/06/16 03:20:05;;;;;;;;;;;;;;;19.41;72.66;100466.28;5042581;27;102588;-86
2021/06/16 03:22:31;;;;;;;;;;;;;;;19.42;72.73;100467.06;5035621;27;103965;-85
2021/06/16 03:24:58;;;;;;;;;;;;;;;19.42;72.80;100465.13;5050367;27;102839;-86
2021/06/16 03:27:26;;;;;;;;;;;;;;;19.42;72.72;100462.34;5042523;27;102673;-88
2021/06/16 03:29:53;;;;;;;;;;;;;;;19.43;72.73;100463.97;5042712;27;102202;-88
2021/06/16 03:32:21;;;;;;;;;;;;;;;19.42;72.75;100467.88;5052339;27;103864;-87
2021/06/16 03:34:47;;;;;;;;;;;;;;;19.44;72.67;100465.59;5041011;27;102578;-85
2021/06/16 03:37:13;;;;;;;;;;;;;;;19.43;72.66;100458.44;5029961;27;102626;-86
2021/06/16 03:39:40;;;;;;;;;;;;;;;19.43;72.61;100457.63;5036103;28;102143;-87
2021/06/16 03:42:07;;;;;;;;;;;;;;;19.44;72.55;100462.84;5033042;28;103306;-88
2021/06/16 03:44:35;;;;;;;;;;;;;;;19.43;72.58;100461.19;5032046;28;101961;-88
2021/06/16 03:47:02;;;;;;;;;;;;;;;19.43;72.69;100469.47;5028867;28;102510;-88
2021/06/16 03:49:29;;;;;;;;;;;;;;;19.44;72.61;100479.41;5035286;27;102107;-87
2021/06/16 03:51:57;;;;;;;;;;;;;;;19.43;72.59;100468.69;5033063;28;103068;-87
2021/06/16 03:54:24;;;;;;;;;;;;;;;19.44;72.82;100471.13;5025052;27;102669;-88
2021/06/16 03:56:51;;;;;;;;;;;;;;;19.43;72.45;100472.25;5021052;28;102560;-88
2021/06/16 03:59:19;;;;;;;;;;;;;;;19.41;73.01;100474.53;5030107;28;102775;-87
2021/06/16 04:01:47;;;;;;;;;;;;;;;19.42;72.62;100473.41;5036662;27;104187;-87
2021/06/16 04:04:13;;;;;;;;;;;;;;;19.43;72.53;100485.25;5023486;28;102541;-87
2021/06/16 04:06:41;;;;;;;;;;;;;;;19.43;72.62;100483.28;5012424;27;102536;-87
2021/06/16 04:09:08;;;;;;;;;;;;;;;19.43;72.47;100486.03;5030714;28;102379;-87
2021/06/16 04:11:36;;;;;;;;;;;;;;;19.41;72.65;100482.81;5023741;28;103913;-87
2021/06/16 04:14:02;;;;;;;;;;;;;;;19.42;72.59;100487.19;5031559;28;102576;-87
2021/06/16 04:16:29;;;;;;;;;;;;;;;19.42;72.71;100495.47;5004623;28;102082;-88
2021/06/16 04:18:57;;;;;;;;;;;;;;;19.42;72.62;100494.66;5024911;28;102688;-88
2021/06/16 04:21:23;;;;;;;;;;;;;;;19.42;72.60;100495.47;5028998;27;104538;-88
2021/06/16 04:23:50;;;;;;;;;;;;;;;19.41;72.61;100499.38;5015464;28;102518;-87
2021/06/16 04:26:17;;;;;;;;;;;;;;;19.42;72.53;100501.00;5037038;27;102431;-86
2021/06/16 04:28:43;;;;;;;;;;;;;;;19.42;72.62;100492.72;5027987;28;103294;-84
2021/06/16 04:31:09;;;;;;;;;;;;;;;19.41;72.71;100499.38;5023303;27;103716;-83
2021/06/16 04:33:36;;;;;;;;;;;;;;;19.43;72.46;100493.50;5025182;27;102388;-83
2021/06/16 04:36:04;;;;;;;;;;;;;;;19.42;72.46;100495.47;5045393;27;102732;-83
2021/06/16 04:38:30;;;;;;;;;;;;;;;19.42;72.52;100501.00;5034545;27;102628;-83
2021/06/16 04:40:56;;;;;;;;;;;;;;;19.42;72.65;100509.28;5049814;27;103921;-82
2021/06/16 04:43:23;;;;;;;;;;;;;;;19.44;72.45;100509.75;5048109;27;102532;-83
2021/06/16 04:45:49;;;;;;;;;;;;;;;19.44;72.73;100514.47;5047855;27;102194;-83
2021/06/16 04:48:15;;;;;;;;;;;;;;;19.43;72.82;100513.63;5049439;27;102728;-82
2021/06/16 04:50:41;;;;;;;;;;;;;;;19.42;72.86;100514.78;5047295;27;103622;-82
2021/06/16 04:53:14;;;;;;;;;;;;;;;19.42;72.70;100514.78;5045458;27;102518;-81
2021/06/16 04:55:41;;;;;;;;;;;;;;;19.45;72.46;100518.84;5049505;27;102867;-83
2021/06/16 04:58:07;;;;;;;;;;;;;;;19.43;72.79;100521.91;5045097;27;102761;-83
2021/06/16 05:00:34;;;;;;;;;;;;;;;19.45;72.37;100527.91;5049676;27;103875;-83
2021/06/16 05:03:01;;;;;;;;;;;;;;;19.49;72.54;100530.00;5043610;27;102195;-83
2021/06/16 05:05:28;;;;;;;;;;;;;;;19.49;72.67;100535.53;5039506;27;102672;-84
2021/06/16 05:07:54;;;;;;;;;;;;;;;19.50;72.58;100534.38;5025280;27;103761;-83
2021/06/16 05:10:22;;;;;;;;;;;;;;;19.51;72.72;100524.94;5046205;27;103910;-83
2021/06/16 05:12:48;;;;;;;;;;;;;;;19.53;72.62;100539.25;5060891;27;102052;-84
2021/06/16 05:15:14;;;;;;;;;;;;;;;19.53;72.66;100540.03;5038660;27;102689;-83
2021/06/16 05:17:41;;;;;;;;;;;;;;;19.53;72.35;100533.72;5050988;27;103403;-83
2021/06/16 05:20:08;;;;;;;;;;;;;;;19.55;72.59;100536.97;5048084;27;103999;-83
2021/06/16 05:22:35;;;;;;;;;;;;;;;19.54;72.73;100540.84;5049490;27;102111;-84
2021/06/16 05:25:02;;;;;;;;;;;;;;;19.54;72.50;100535.31;5032565;27;102675;-84
2021/06/16 05:27:30;;;;;;;;;;;;;;;19.54;72.39;100549.13;5055863;27;102924;-84
2021/06/16 05:29:57;;;;;;;;;;;;;;;19.53;72.44;100540.03;5049467;27;103721;-83
2021/06/16 05:32:23;;;;;;;;;;;;;;;19.54;72.27;100547.16;5036786;27;102186;-82
2021/06/16 05:34:50;;;;;;;;;;;;;;;19.53;72.55;100550.28;5029153;27;102481;-83
2021/06/16 05:37:16;;;;;;;;;;;;;;;19.54;72.69;100555.44;5047075;27;102583;-83
2021/06/16 05:39:42;;;;;;;;;;;;;;;19.56;72.67;100563.41;5047060;27;104020;-83
2021/06/16 05:42:09;;;;;;;;;;;;;;;19.57;72.56;100556.75;5048323;27;103542;-83
2021/06/16 05:44:37;;;;;;;;;;;;;;;19.58;72.63;100561.09;5049159;27;102456;-83
2021/06/16 05:47:03;;;;;;;;;;;;;;;19.56;72.53;100563.41;5060083;27;102349;-81
2021/06/16 05:49:29;;;;;;;;;;;;;;;19.57;72.70;100567.78;5052466;27;103342;-81
2021/06/16 05:51:55;;;;;;;;;;;;;;;19.56;72.54;100569.75;5047478;27;102882;-82
2021/06/16 05:56:31;;;;;;;10.65;8.75;;;;;;;19.53;72.89;100564.06;5059474;27;102606;-85
2021/06/16 05:58:57;;;;;;;9.70;8.70;;;;;;;19.51;72.80;100558.91;5041981;27;102493;-86
2021/06/16 06:01:23;;;;;;;13.63;10.10;;;;;;;19.54;72.66;100557.41;5039795;27;103955;-85
2021/06/16 06:03:50;;;;;;;10.80;9.73;;;;;;;19.54;72.76;100568.44;5043262;27;102280;-85
2021/06/16 06:06:16;;;;;;;11.90;10.43;;;;;;;19.54;72.65;100565.69;5036023;27;102869;-86
2021/06/16 06:08:50;;;;;;;11.82;9.93;;;;;;;19.53;72.91;100577.88;5037709;27;102858;-85
2021/06/16 06:11:16;;;;;;;10.65;9.60;;;;;;;19.53;72.79;100572.34;5043729;27;104019;-85
2021/06/16 06:13:46;;;;;;;11.77;10.00;;;;;;;19.53;72.98;100578.69;5041679;27;103183;-85
2021/06/16 06:16:12;;;;;;;10.27;9.38;;;;;;;19.54;72.76;100574.78;5050512;27;102185;-85
2021/06/16 06:18:39;;;;;;;10.98;9.98;;;;;;;19.54;72.75;100579.47;5048002;27;102591;-85
2021/06/16 06:21:07;;;;;;;11.15;10.15;;;;;;;19.52;72.80;100577.06;5043211;27;102994;-85
2021/06/16 06:23:34;;;;;;;11.10;10.05;;;;;;;19.54;72.72;100579.47;5040856;27;102332;-86
2021/06/16 06:26:00;;;;;;;10.63;9.70;;;;;;;19.53;72.60;100577.88;5036714;27;102301;-86
2021/06/16 06:28:27;;;;;;;10.65;9.75;;;;;;;19.52;73.01;100573.50;5040000;27;102660;-87
2021/06/16 06:30:55;;;;;;;11.95;10.60;;;;;;;19.52;73.09;100574.31;5036468;27;105017;-86
2021/06/16 06:33:21;;;;;;;10.52;9.63;;;;;;;19.53;72.74;100578.69;5035400;27;102834;-86
2021/06/16 06:35:48;;;;;;;11.35;10.18;;;;;;;19.53;73.19;100577.88;5034292;27;102676;-86
2021/06/16 06:38:14;;;;;;;11.70;10.10;;;;;;;19.54;72.95;100573.97;5040621;27;102494;-86
2021/06/16 06:40:41;;;;;;;10.88;9.88;;;;;;;19.54;73.15;100573.97;5036486;27;104251;-86
2021/06/16 06:43:08;;;;;;;11.68;10.02;;;;;;;19.53;73.19;100577.88;5037560;27;102279;-85
2021/06/16 06:45:35;;;;;;;10.80;9.70;;;;;;;19.54;73.20;100582.25;5048827;27;102489;-85
2021/06/16 06:48:03;;;;;;;10.00;9.10;;;;;;;19.54;72.77;100590.53;5041866;27;102347;-85
2021/06/16 06:50:30;;;;;;;10.15;9.25;;;;;;;19.52;72.74;100582.59;5037586;27;103822;-84
2021/06/16 06:52:56;;;;;;;10.48;9.27;;;;;;;19.52;72.83;100582.59;5022020;27;102144;-84
2021/06/16 06:55:25;;;;;;;10.43;9.05;;;;;;;19.54;72.88;100579.47;5019134;27;102330;-84
2021/06/16 06:57:53;;;;;;;10.23;9.23;;;;;;;19.53;72.90;100583.41;5025614;27;102995;-84
2021/06/16 07:00:20;;;;;;;9.25;8.25;;;;;;;19.52;73.19;100587.31;5023063;27;103902;-85
2021/06/16 07:02:47;;;;;;;8.85;8.10;;;;;;;19.52;73.06;100581.78;5022000;27;102188;-85
2021/06/16 07:05:16;;;;;;;11.40;8.73;;;;;;;19.52;73.28;100593.63;5024923;27;102589;-86
2021/06/16 07:07:43;;;;;;;12.55;8.18;;;;;;;19.52;73.71;100593.63;5009668;28;102192;-86
2021/06/16 07:10:12;;;;;;;9.38;7.80;;;;;;;19.52;73.97;100598.34;5008303;28;104367;-85
2021/06/16 07:12:39;;;;;;;11.43;6.90;;;;;;;19.49;73.71;100599.00;5009269;28;102585;-85
2021/06/16 07:15:08;;;;;;;11.40;6.22;;;;;;;19.45;74.25;100596.91;5008198;28;102712;-84
2021/06/16 07:17:35;;;;;;;7.97;6.43;;;;;;;19.47;74.50;100602.09;5025643;28;102702;-85
2021/06/16 07:20:05;;;;;;;13.15;5.95;;;;;;;19.47;74.34;100596.56;5013268;28;102939;-85
2021/06/16 07:22:34;;;;;;;8.93;5.57;;;;;;;19.50;74.06;100595.91;5009495;28;102447;-88
2021/06/16 07:25:00;;;;;;;9.20;6.27;;;;;;;19.49;74.25;100607.28;5008879;28;102401;-89
2021/06/16 07:27:27;;;;;;;9.55;6.22;;;;;;;19.51;74.13;100580.16;5010635;28;104164;-89
2021/06/16 07:29:57;;;;;;;8.75;5.78;;;;;;;19.50;74.36;100578.53;5023176;27;104067;-89
2021/06/16 07:32:24;;;;;;;14.75;6.40;;;;;;;19.50;74.79;100578.53;5011293;28;102674;-89
2021/06/16 07:34:50;;;;;;;9.48;6.22;;;;;;;19.48;74.52;100570.63;5013823;28;102608;-88
2021/06/16 07:37:17;;;;;;;10.43;6.18;;;;;;;19.52;74.24;100571.56;5017513;28;102626;-89
2021/06/16 07:39:45;;;;;;;8.45;5.97;;;;;;;19.52;74.43;100587.31;5015886;28;103010;-87
2021/06/16 07:42:12;;;;;;;16.00;7.40;;;;;;;19.53;74.57;100580.63;5014651;28;102400;-87
2021/06/16 07:44:39;;;;;;;17.00;7.00;;;;;;;19.53;74.25;100588.91;5008421;28;102874;-87
2021/06/16 07:47:07;;;;;;;15.32;8.15;;;;;;;19.55;74.08;100586.66;5006977;28;102450;-86
2021/06/16 07:49:34;;;;;;;13.13;7.70;;;;;;;19.54;74.43;100593.28;5005585;28;104740;-87
2021/06/16 07:52:01;;;;;;;24.83;8.65;;;;;;;19.55;74.42;100587.44;5009119;28;102912;-86
2021/06/16 07:54:27;;;;;;;16.70;8.40;;;;;;;19.55;74.07;100589.41;5020339;28;102290;-85
2021/06/16 07:56:56;;;;;;;13.25;7.53;;;;;;;19.54;74.57;100601.56;5006660;28;102688;-85
2021/06/16 07:59:22;;;;;;;13.80;7.50;;;;;;;19.54;74.74;100602.38;5008428;28;102937;-86
2021/06/16 08:01:49;;;;;;;19.50;8.40;;;;;;;19.56;74.49;100602.06;5007866;28;102268;-86
2021/06/16 08:04:16;;;;;;;22.75;8.40;;;;;;;19.58;74.85;100591.47;5006860;28;102710;-86
2021/06/16 08:06:42;;;;;;;15.25;7.60;;;;;;;19.61;74.74;100596.31;5006807;28;102928;-86
2021/06/16 08:09:09;;;;;;;15.27;7.15;;;;;;;19.63;74.70;100600.41;5004170;28;103942;-85
2021/06/16 08:11:43;;;;;;;17.73;7.95;;;;;;;19.66;75.22;100602.50;5007004;28;104057;-85
2021/06/16 08:14:11;;;;;;;15.65;8.50;;;;;;;19.69;74.88;100595.50;5001646;28;102519;-85
2021/06/16 08:16:38;;;;;;;15.02;7.88;;;;;;;19.76;74.72;100600.47;5003690;28;102638;-88
2021/06/16 08:19:05;;;;;;;19.23;8.35;;;;;;;19.76;74.84;100590.22;4995304;28;103153;-88
2021/06/16 08:21:32;;;;;;;23.85;8.00;;;;;;;19.79;74.79;100600.59;5005186;28;102219;-87
2021/06/16 08:23:59;;;;;;;12.82;7.43;;;;;;;19.84;74.34;100594.91;5018665;27;103341;-87
2021/06/16 08:26:26;;;;;;;24.67;8.38;;;;;;;19.84;75.11;100605.94;5004805;28;103390;-88
2021/06/16 08:28:52;;;;;;;10.02;6.47;;;;;;;19.89;73.99;100602.97;5004387;28;104092;-88
2021/06/16 08:31:22;;;;;;;10.82;7.32;;;;;;;19.91;74.18;100608.97;5020432;27;102231;-87
2021/06/16 08:33:49;;;;;;;18.10;8.07;;;;;;;19.96;74.95;100601.63;5012821;28;104343;-88
2021/06/16 08:36:16;;;;;;;11.45;6.82;;;;;;;20.02;75.17;100603.06;5011469;28;102256;-88
2021/06/16 08:38:43;;;;;;;17.83;7.07;;;;;;;20.05;74.32;100599.59;5008368;28;103577;-87
2021/06/16 08:41:10;;;;;;;16.98;7.65;;;;;;;20.08;75.09;100604.44;5006677;28;102207;-88
2021/06/16 08:43:41;;;;;;;14.05;6.68;;;;;;;20.09;74.78;100597.78;5003132;28;102741;-87
2021/06/16 08:46:09;;;;;;;14.52;6.88;;;;;;;20.14;74.67;100597.56;5020964;27;103994;-87
2021/06/16 08:48:39;;;;;;;13.45;7.13;;;;;;;20.13;74.45;100607.00;5001036;28;104062;-87
2021/06/16 08:51:08;;;;;;;13.02;7.60;;;;;;;20.12;74.24;100605.38;5024014;27;102604;-87
2021/06/16 08:53:35;;;;;;;26.95;7.68;;;;;;;20.11;74.23;100606.53;5006448;28;102172;-87
2021/06/16 08:56:03;;;;;;;13.80;7.75;;;;;;;20.12;74.12;100613.66;5000261;28;103259;-87
2021/06/16 08:58:35;;;;;;;7.68;6.70;;;;;;;20.12;74.24;100619.19;5004040;28;102732;-87
2021/06/16 09:01:02;;;;;;;7.22;6.47;;;;;;;20.11;74.02;100614.81;5005493;28;102235;-87
2021/06/16 09:03:30;;;;;;;14.88;7.03;;;;;;;20.09;73.78;100617.94;5009017;28;102702;-87
2021/06/16 09:06:06;;;;;;;13.20;7.13;;;;;;;20.09;74.29;100628.19;5005400;28;102183;-87
2021/06/16 09:08:33;;;;;;;24.25;7.70;;;;;;;20.10;74.26;100635.31;5005819;28;103891;-87
2021/06/16 09:10:59;;;;;;;12.30;6.03;;;;;;;20.08;73.77;100618.25;5004260;28;102183;-87
2021/06/16 09:13:28;;;;;;;11.45;7.20;;;;;;;20.06;74.00;100626.91;5011524;28;102483;-86
2021/06/16 09:15:56;;;;;;;;;;;;;;;20.07;73.82;100625.75;5015700;28;102208;-88
2021/06/16 09:18:23;;;;;;;19.05;7.57;;;;;;;20.09;73.88;100628.19;5008030;27;104051;-87
2021/06/16 09:20:54;;;;;;;29.48;7.63;;;;;;;20.07;74.14;100624.94;5014782;28;102092;-87
2021/06/16 09:23:24;;;;;;;19.98;8.32;;;;;;;20.09;74.23;100634.50;5010140;28;102462;-88
2021/06/16 09:26:09;;;;;;;27.52;8.55;;;;;;;20.10;74.17;100629.78;5019615;27;102329;-87
2021/06/16 09:28:37;;;;;;;15.73;7.80;;;;;;;20.08;73.88;100635.63;5006462;28;104037;-87
2021/06/16 09:31:04;;;;;;;12.77;7.10;;;;;;;20.09;73.88;100634.50;5006724;28;102558;-88
2021/06/16 09:33:32;;;;;;;108.82;12.95;;;;;;;20.08;73.81;100632.88;5005098;28;102351;-89
2021/06/16 09:35:58;;;;;;;41.00;9.45;;;;;;;20.12;73.66;100635.78;5008893;27;102514;-88
2021/06/16 09:38:34;;;;;;;33.28;9.48;;;;;;;20.13;73.94;100637.41;4998810;28;103811;-88
2021/06/16 09:41:19;;;;;;;28.80;10.45;;;;;;;20.09;74.12;100634.50;4996530;28;102592;-88
2021/06/16 09:43:49;;;;;;;22.88;8.88;;;;;;;20.08;73.82;100637.59;5033207;27;102723;-88
2021/06/16 09:46:15;;;;;;;19.30;9.20;;;;;;;20.06;73.92;100639.91;5024601;27;102194;-87
2021/06/16 09:48:43;;;;;;;20.63;8.70;;;;;;;20.04;73.73;100648.50;5009342;28;103924;-88
2021/06/16 09:51:20;;;;;;;23.55;9.15;;;;;;;20.03;73.64;100648.84;5009297;28;102238;-88
2021/06/16 09:54:11;;;;;;;20.52;8.18;;;;;;;20.00;73.76;100646.78;5001395;28;102997;-88
2021/06/16 09:56:39;;;;;;;21.40;9.52;;;;;;;19.99;73.41;100650.69;5000789;28;102431;-88
2021/06/16 09:59:05;;;;;;;15.60;8.93;;;;;;;19.98;73.65;100649.03;5007881;28;103877;-87
2021/06/16 10:01:46;;;;;;;22.38;8.73;;;;;;;19.93;73.52;100648.09;5006129;28;102467;-88
2021/06/16 10:04:35;;;;;;;17.85;9.30;;;;;;;19.92;73.60;100659.50;5006729;28;103837;-88
2021/06/16 10:07:19;;;;;;;11.63;7.90;;;;;;;19.91;73.40;100655.94;5011204;28;102527;-89
2021/06/16 10:09:50;;;;;;;10.75;7.30;;;;;;;19.89;73.10;100641.63;4997768;28;104148;-89
2021/06/16 10:12:17;;;;;;;14.60;7.80;;;;;;;19.89;73.16;100638.88;5007030;28;103163;-89
2021/06/16 10:14:44;;;;;;;11.25;7.72;;;;;;;19.87;73.62;100638.41;5008342;28;102594;-89
2021/06/16 10:17:10;;;;;;;9.23;7.30;;;;;;;19.88;73.38;100647.50;5008140;28;102861;-87
2021/06/16 10:19:37;;;;;;;9.43;7.47;;;;;;;19.86;73.43;100634.03;5007538;28;104022;-88
2021/06/16 10:22:04;;;;;;;11.73;7.53;;;;;;;19.86;73.43;100645.06;5010656;28;102561;-88
2021/06/16 10:24:31;;;;;;;12.23;7.18;;;;;;;19.85;73.39;100635.16;5010030;28;102540;-88
2021/06/16 10:27:03;;;;;;;10.30;6.88;;;;;;;19.85;72.96;100635.16;5009498;28;102534;-88
2021/06/16 10:29:35;;;;;;;7.40;6.70;;;;;;;19.85;73.27;100631.59;5024404;27;104115;-87
2021/06/16 10:32:03;;;;;;;10.75;7.75;;;;;;;19.84;73.03;100625.28;5008211;28;102993;-89
2021/06/16 10:34:59;;;;;;;7.70;6.82;;;;;;;19.83;73.19;100629.16;5009866;28;102112;-87
2021/06/16 10:37:36;;;;;;;8.77;6.47;;;;;;;19.82;73.21;100640.56;5005894;27;102103;-87
2021/06/16 10:40:30;;;;;;;10.80;6.75;;;;;;;19.80;73.32;100642.84;5004367;28;104194;-87
2021/06/16 10:43:24;;;;;;;13.43;6.90;;;;;;;19.79;73.18;100641.22;5022864;27;102509;-87
2021/06/16 10:45:54;;;;;;;7.40;6.80;;;;;;;19.78;73.09;100634.91;5003865;28;102397;-87
2021/06/16 10:48:22;;;;;;;11.68;7.07;;;;;;;19.79;73.16;100636.50;5009347;28;102544;-87
2021/06/16 10:51:03;;;;;;;11.20;7.53;;;;;;;19.76;73.37;100634.41;5008613;28;103886;-87
2021/06/16 10:53:35;;;;;;;7.68;6.85;;;;;;;19.76;73.10;100636.38;5012409;28;102183;-87
2021/06/16 10:56:06;;;;;;;9.05;6.97;;;;;;;19.76;73.24;100639.13;5011000;28;102216;-87
2021/06/16 10:58:46;;;;;;;9.73;7.70;;;;;;;19.74;73.31;100628.44;5029987;27;102189;-87
2021/06/16 11:01:15;;;;;;;7.57;6.88;;;;;;;19.74;73.16;100633.16;5026770;27;103620;-87
2021/06/16 11:04:03;;;;;;;8.80;7.32;;;;;;;19.74;73.08;100633.16;5012679;28;102774;-87
2021/06/16 11:06:40;;;;;;;8.10;7.35;;;;;;;19.72;73.22;100625.19;5011931;28;102429;-87
2021/06/16 11:09:08;;;;;;;7.93;6.32;;;;;;;19.72;73.11;100625.19;5012031;28;102351;-87
2021/06/16 11:12:06;;;;;;;8.52;7.10;;;;;;;19.71;73.10;100623.56;5006264;28;103615;-88
2021/06/16 11:14:52;;;;;;;9.07;7.53;;;;;;;19.75;73.36;100624.53;5007679;28;103501;-88
2021/06/16 11:17:38;;;;;;;8.50;6.90;;;;;;;19.76;73.10;100614.28;5009684;28;102987;-89
2021/06/16 11:20:05;;;;;;;7.43;6.72;;;;;;;19.76;73.45;100606.81;5011392;28;102774;-89
2021/06/16 11:22:38;;;;;;;7.82;6.47;;;;;;;19.76;73.01;100614.28;5012041;28;104275;-89
2021/06/16 11:25:25;;;;;;;7.03;6.43;;;;;;;19.75;73.04;100607.94;5009094;28;102805;-89
2021/06/16 11:28:10;;;;;;;7.30;6.60;;;;;;;19.75;73.05;100602.44;5006677;28;103631;-88
2021/06/16 11:30:41;;;;;;;8.00;6.75;;;;;;;19.76;73.12;100598.50;5014454;28;102661;-88
2021/06/16 11:33:32;;;;;;;7.10;6.40;;;;;;;19.76;72.69;100598.50;5010874;28;103196;-88
2021/06/16 11:36:08;;;;;;;6.90;6.30;;;;;;;19.76;72.86;100593.00;5008445;28;103480;-88
2021/06/16 11:38:37;;;;;;;7.40;6.30;;;;;;;19.77;72.68;100594.63;5006621;28;103127;-89
2021/06/16 11:41:17;;;;;;;9.20;6.60;;;;;;;19.77;72.87;100594.63;5001992;28;102704;-87
2021/06/16 11:43:46;;;;;;;7.35;6.60;;;;;;;19.77;72.71;100596.59;5018076;27;104001;-88
2021/06/16 11:46:17;;;;;;;6.95;6.22;;;;;;;19.76;72.73;100603.22;5010399;28;102716;-88
2021/06/16 11:48:47;;;;;;;6.60;6.00;;;;;;;19.76;72.65;100606.81;5009618;28;102168;-88
2021/06/16 11:51:26;;;;;;;6.88;6.18;;;;;;;19.76;72.75;100604.03;5009620;28;102680;-87